sensor_id;sensor_type;location;lat;lon;timestamp;pressure;altitude;pressure_sealevel;temperature;humidity
21300;BME280;10809;49.476;11.016;2022-09-13T00:01:34;97966.50;;;16.78;56.60
21300;BME280;10809;49.476;11.016;2022-09-13T00:04:04;97970.44;;;16.74;56.73
21300;BME280;10809;49.476;11.016;2022-09-13T00:06:34;97975.06;;;16.72;56.49
21300;BME280;10809;49.476;11.016;2022-09-13T00:09:05;97973.50;;;16.70;56.78
21300;BME280;10809;49.476;11.016;2022-09-13T00:11:35;97966.47;;;16.69;56.75
21300;BME280;10809;49.476;11.016;2022-09-13T00:14:06;97959.53;;;16.66;56.66
21300;BME280;10809;49.476;11.016;2022-09-13T00:16:36;97959.81;;;16.63;56.88
21300;BME280;10809;49.476;11.016;2022-09-13T00:19:06;97958.25;;;16.61;56.76
21300;BME280;10809;49.476;11.016;2022-09-13T00:21:37;97946.00;;;16.58;56.98
21300;BME280;10809;49.476;11.016;2022-09-13T00:24:07;97953.28;;;16.56;56.87
21300;BME280;10809;49.476;11.016;2022-09-13T00:26:37;97949.91;;;16.54;56.81
21300;BME280;10809;49.476;11.016;2022-09-13T00:29:08;97945.66;;;16.52;56.84
21300;BME280;10809;49.476;11.016;2022-09-13T00:31:38;97950.28;;;16.50;57.06
21300;BME280;10809;49.476;11.016;2022-09-13T00:34:08;97945.06;;;16.48;57.30
21300;BME280;10809;49.476;11.016;2022-09-13T00:36:39;97944.34;;;16.46;56.94
21300;BME280;10809;49.476;11.016;2022-09-13T00:39:10;97940.97;;;16.44;57.04
21300;BME280;10809;49.476;11.016;2022-09-13T00:41:40;97940.25;;;16.42;57.08
21300;BME280;10809;49.476;11.016;2022-09-13T00:47:37;97928.13;;;16.38;57.37
21300;BME280;10809;49.476;11.016;2022-09-13T00:50:30;97924.75;;;16.36;56.88
21300;BME280;10809;49.476;11.016;2022-09-13T00:55:52;97926.94;;;16.31;57.35
21300;BME280;10809;49.476;11.016;2022-09-13T00:58:40;97917.25;;;16.30;57.25
21300;BME280;10809;49.476;11.016;2022-09-13T01:01:13;97920.91;;;16.29;57.33
21300;BME280;10809;49.476;11.016;2022-09-13T01:03:45;97918.47;;;16.26;57.26
21300;BME280;10809;49.476;11.016;2022-09-13T01:06:20;97923.06;;;16.24;57.24
21300;BME280;10809;49.476;11.016;2022-09-13T01:08:52;97921.41;;;16.23;57.15
21300;BME280;10809;49.476;11.016;2022-09-13T01:11:32;97919.69;;;16.22;57.29
21300;BME280;10809;49.476;11.016;2022-09-13T01:14:06;97922.47;;;16.20;57.32
21300;BME280;10809;49.476;11.016;2022-09-13T01:16:37;97914.59;;;16.19;57.30
21300;BME280;10809;49.476;11.016;2022-09-13T01:19:08;97931.59;;;16.18;57.23
21300;BME280;10809;49.476;11.016;2022-09-13T01:25:12;97917.66;;;16.14;57.35
21300;BME280;10809;49.476;11.016;2022-09-13T01:28:09;97929.44;;;16.12;57.13
21300;BME280;10809;49.476;11.016;2022-09-13T01:31:01;97918.28;;;16.07;57.00
21300;BME280;10809;49.476;11.016;2022-09-13T01:33:56;97923.06;;;16.03;56.81
21300;BME280;10809;49.476;11.016;2022-09-13T01:39:16;97922.84;;;15.95;57.19
21300;BME280;10809;49.476;11.016;2022-09-13T01:42:25;97918.03;;;15.89;56.78
21300;BME280;10809;49.476;11.016;2022-09-13T01:45:04;97911.22;;;15.85;56.91
21300;BME280;10809;49.476;11.016;2022-09-13T01:47:57;97918.91;;;15.79;56.77
21300;BME280;10809;49.476;11.016;2022-09-13T01:53:24;97918.81;;;15.69;57.14
21300;BME280;10809;49.476;11.016;2022-09-13T01:58:53;97917.03;;;15.59;57.13
21300;BME280;10809;49.476;11.016;2022-09-13T02:01:46;97915.59;;;15.55;57.31
21300;BME280;10809;49.476;11.016;2022-09-13T02:04:23;97925.53;;;15.53;57.33
21300;BME280;10809;49.476;11.016;2022-09-13T02:07:12;97931.25;;;15.48;57.27
21300;BME280;10809;49.476;11.016;2022-09-13T02:09:53;97926.16;;;15.45;57.42
21300;BME280;10809;49.476;11.016;2022-09-13T02:12:27;97913.06;;;15.42;57.43
21300;BME280;10809;49.476;11.016;2022-09-13T02:15:07;97905.44;;;15.38;57.60
21300;BME280;10809;49.476;11.016;2022-09-13T02:17:42;97900.19;;;15.36;57.68
21300;BME280;10809;49.476;11.016;2022-09-13T02:20:35;97898.72;;;15.32;57.69
21300;BME280;10809;49.476;11.016;2022-09-13T02:23:12;97896.19;;;15.31;57.70
21300;BME280;10809;49.476;11.016;2022-09-13T02:25:45;97875.97;;;15.28;58.07
21300;BME280;10809;49.476;11.016;2022-09-13T02:28:21;97887.63;;;15.27;58.02
21300;BME280;10809;49.476;11.016;2022-09-13T02:30:53;97893.06;;;15.26;58.09
21300;BME280;10809;49.476;11.016;2022-09-13T02:33:30;97886.03;;;15.25;57.92
21300;BME280;10809;49.476;11.016;2022-09-13T02:36:12;97872.81;;;15.23;57.99
21300;BME280;10809;49.476;11.016;2022-09-13T02:38:53;97876.59;;;15.21;57.80
21300;BME280;10809;49.476;11.016;2022-09-13T02:41:37;97874.91;;;15.20;57.83
21300;BME280;10809;49.476;11.016;2022-09-13T02:44:13;97867.84;;;15.19;58.07
21300;BME280;10809;49.476;11.016;2022-09-13T02:47:29;97859.16;;;15.17;57.85
21300;BME280;10809;49.476;11.016;2022-09-13T02:50:44;97870.75;;;15.16;57.84
21300;BME280;10809;49.476;11.016;2022-09-13T02:53:37;97874.41;;;15.15;58.08
21300;BME280;10809;49.476;11.016;2022-09-13T02:56:21;97868.34;;;15.13;58.05
21300;BME280;10809;49.476;11.016;2022-09-13T02:59:32;97871.13;;;15.11;58.05
21300;BME280;10809;49.476;11.016;2022-09-13T03:02:04;97860.59;;;15.10;58.25
21300;BME280;10809;49.476;11.016;2022-09-13T03:04:36;97861.56;;;15.09;58.22
21300;BME280;10809;49.476;11.016;2022-09-13T03:07:11;97862.56;;;15.08;58.42
21300;BME280;10809;49.476;11.016;2022-09-13T03:09:53;97868.03;;;15.06;58.15
21300;BME280;10809;49.476;11.016;2022-09-13T03:15:32;97855.75;;;15.04;58.27
21300;BME280;10809;49.476;11.016;2022-09-13T03:18:11;97851.41;;;15.03;58.55
21300;BME280;10809;49.476;11.016;2022-09-13T03:23:38;97856.13;;;14.99;58.58
21300;BME280;10809;49.476;11.016;2022-09-13T03:26:35;97858.91;;;14.98;58.48
21300;BME280;10809;49.476;11.016;2022-09-13T03:32:18;97854.81;;;14.94;58.52
21300;BME280;10809;49.476;11.016;2022-09-13T03:40:59;97854.56;;;14.86;58.45
21300;BME280;10809;49.476;11.016;2022-09-13T03:43:37;97837.03;;;14.83;58.50
21300;BME280;10809;49.476;11.016;2022-09-13T03:46:17;97841.63;;;14.81;58.43
21300;BME280;10809;49.476;11.016;2022-09-13T03:48:50;97845.38;;;14.79;58.71
21300;BME280;10809;49.476;11.016;2022-09-13T03:51:22;97853.50;;;14.77;59.13
21300;BME280;10809;49.476;11.016;2022-09-13T03:53:57;97859.06;;;14.74;58.62
21300;BME280;10809;49.476;11.016;2022-09-13T03:56:29;97871.66;;;14.72;58.70
21300;BME280;10809;49.476;11.016;2022-09-13T03:58:59;97867.44;;;14.69;58.77
21300;BME280;10809;49.476;11.016;2022-09-13T04:01:30;97847.19;;;14.67;58.59
21300;BME280;10809;49.476;11.016;2022-09-13T04:04:00;97840.19;;;14.66;58.64
21300;BME280;10809;49.476;11.016;2022-09-13T04:06:31;97841.28;;;14.63;58.81
21300;BME280;10809;49.476;11.016;2022-09-13T04:09:01;97841.41;;;14.62;58.83
21300;BME280;10809;49.476;11.016;2022-09-13T04:11:31;97844.19;;;14.60;58.97
21300;BME280;10809;49.476;11.016;2022-09-13T04:14:02;97838.00;;;14.60;59.02
21300;BME280;10809;49.476;11.016;2022-09-13T04:16:32;97842.59;;;14.58;58.95
21300;BME280;10809;49.476;11.016;2022-09-13T04:19:03;97841.88;;;14.56;59.19
21300;BME280;10809;49.476;11.016;2022-09-13T04:21:33;97838.34;;;14.55;59.06
21300;BME280;10809;49.476;11.016;2022-09-13T04:24:04;97844.78;;;14.53;59.02
21300;BME280;10809;49.476;11.016;2022-09-13T04:26:34;97849.38;;;14.51;58.56
21300;BME280;10809;49.476;11.016;2022-09-13T04:29:04;97863.81;;;14.48;58.93
21300;BME280;10809;49.476;11.016;2022-09-13T04:31:35;97871.91;;;14.47;58.95
21300;BME280;10809;49.476;11.016;2022-09-13T04:34:05;97866.66;;;14.45;59.04
21300;BME280;10809;49.476;11.016;2022-09-13T04:36:36;97846.44;;;14.43;59.18
21300;BME280;10809;49.476;11.016;2022-09-13T04:39:06;97857.19;;;14.41;59.02
21300;BME280;10809;49.476;11.016;2022-09-13T04:41:37;97854.66;;;14.40;59.32
21300;BME280;10809;49.476;11.016;2022-09-13T04:44:07;97864.47;;;14.39;58.99
21300;BME280;10809;49.476;11.016;2022-09-13T04:46:38;97874.41;;;14.37;59.25
21300;BME280;10809;49.476;11.016;2022-09-13T04:49:09;97872.69;;;14.36;59.36
21300;BME280;10809;49.476;11.016;2022-09-13T04:51:39;97873.78;;;14.34;59.12
21300;BME280;10809;49.476;11.016;2022-09-13T04:54:10;97878.25;;;14.33;59.38
21300;BME280;10809;49.476;11.016;2022-09-13T04:56:43;97881.88;;;14.32;59.48
21300;BME280;10809;49.476;11.016;2022-09-13T04:59:13;97882.88;;;14.31;59.35
21300;BME280;10809;49.476;11.016;2022-09-13T05:01:43;97875.81;;;14.30;59.38
21300;BME280;10809;49.476;11.016;2022-09-13T05:04:14;97876.81;;;14.29;59.53
21300;BME280;10809;49.476;11.016;2022-09-13T05:06:44;97863.59;;;14.28;59.42
21300;BME280;10809;49.476;11.016;2022-09-13T05:09:15;97862.88;;;14.26;59.63
21300;BME280;10809;49.476;11.016;2022-09-13T05:11:46;97864.59;;;14.27;59.60
21300;BME280;10809;49.476;11.016;2022-09-13T05:14:16;97872.69;;;14.25;59.69
21300;BME280;10809;49.476;11.016;2022-09-13T05:16:46;97869.06;;;14.26;59.74
21300;BME280;10809;49.476;11.016;2022-09-13T05:19:17;97868.19;;;14.26;59.68
21300;BME280;10809;49.476;11.016;2022-09-13T05:21:47;97861.06;;;14.26;59.79
21300;BME280;10809;49.476;11.016;2022-09-13T05:24:17;97859.38;;;14.25;59.85
21300;BME280;10809;49.476;11.016;2022-09-13T05:26:48;97862.03;;;14.25;59.91
21300;BME280;10809;49.476;11.016;2022-09-13T05:29:18;97864.72;;;14.25;59.89
21300;BME280;10809;49.476;11.016;2022-09-13T05:31:49;97861.06;;;14.26;60.10
21300;BME280;10809;49.476;11.016;2022-09-13T05:34:19;97860.09;;;14.27;60.12
21300;BME280;10809;49.476;11.016;2022-09-13T05:36:49;97858.16;;;14.29;60.41
21300;BME280;10809;49.476;11.016;2022-09-13T05:39:20;97856.25;;;14.31;60.42
21300;BME280;10809;49.476;11.016;2022-09-13T05:41:51;97847.16;;;14.34;60.36
21300;BME280;10809;49.476;11.016;2022-09-13T05:44:21;97850.44;;;14.37;60.33
21300;BME280;10809;49.476;11.016;2022-09-13T05:46:52;97852.84;;;14.40;60.76
21300;BME280;10809;49.476;11.016;2022-09-13T05:49:22;97846.22;;;14.46;60.76
21300;BME280;10809;49.476;11.016;2022-09-13T05:51:53;97842.50;;;14.48;60.72
21300;BME280;10809;49.476;11.016;2022-09-13T05:54:23;97849.13;;;14.54;60.78
21300;BME280;10809;49.476;11.016;2022-09-13T05:56:53;97846.97;;;14.59;61.06
21300;BME280;10809;49.476;11.016;2022-09-13T05:59:29;97853.63;;;14.64;61.16
21300;BME280;10809;49.476;11.016;2022-09-13T06:02:04;97855.91;;;14.69;61.11
21300;BME280;10809;49.476;11.016;2022-09-13T06:04:34;97863.53;;;14.73;61.33
21300;BME280;10809;49.476;11.016;2022-09-13T06:07:05;97866.72;;;14.79;61.28
21300;BME280;10809;49.476;11.016;2022-09-13T06:09:35;97870.69;;;14.84;61.73
21300;BME280;10809;49.476;11.016;2022-09-13T06:12:05;97872.88;;;14.90;61.97
21300;BME280;10809;49.476;11.016;2022-09-13T06:14:36;97861.84;;;14.95;61.54
21300;BME280;10809;49.476;11.016;2022-09-13T06:17:06;97870.31;;;15.00;61.57
21300;BME280;10809;49.476;11.016;2022-09-13T06:19:36;97872.63;;;15.04;61.23
21300;BME280;10809;49.476;11.016;2022-09-13T06:22:07;97874.91;;;15.09;61.30
21300;BME280;10809;49.476;11.016;2022-09-13T06:24:37;97874.53;;;15.13;61.26
21300;BME280;10809;49.476;11.016;2022-09-13T06:27:07;97881.31;;;15.17;61.31
21300;BME280;10809;49.476;11.016;2022-09-13T06:29:39;97885.31;;;15.23;61.13
21300;BME280;10809;49.476;11.016;2022-09-13T06:32:09;97882.41;;;15.26;61.17
21300;BME280;10809;49.476;11.016;2022-09-13T06:34:40;97883.84;;;15.30;61.21
21300;BME280;10809;49.476;11.016;2022-09-13T06:37:10;97883.59;;;15.33;61.26
21300;BME280;10809;49.476;11.016;2022-09-13T06:39:41;97884.09;;;15.38;61.16
21300;BME280;10809;49.476;11.016;2022-09-13T06:42:12;97874.13;;;15.40;61.17
21300;BME280;10809;49.476;11.016;2022-09-13T06:44:43;97870.25;;;15.44;61.51
21300;BME280;10809;49.476;11.016;2022-09-13T06:47:15;97870.00;;;15.47;61.16
21300;BME280;10809;49.476;11.016;2022-09-13T06:49:45;97874.09;;;15.51;61.08
21300;BME280;10809;49.476;11.016;2022-09-13T06:52:15;97879.19;;;15.54;61.08
21300;BME280;10809;49.476;11.016;2022-09-13T06:54:46;97871.66;;;15.59;61.27
21300;BME280;10809;49.476;11.016;2022-09-13T06:57:16;97864.97;;;15.64;61.17
21300;BME280;10809;49.476;11.016;2022-09-13T06:59:46;97863.50;;;15.71;61.28
21300;BME280;10809;49.476;11.016;2022-09-13T07:02:17;97869.16;;;15.78;61.40
21300;BME280;10809;49.476;11.016;2022-09-13T07:04:47;97870.34;;;15.85;61.35
21300;BME280;10809;49.476;11.016;2022-09-13T07:07:18;97872.50;;;15.91;61.27
21300;BME280;10809;49.476;11.016;2022-09-13T07:09:48;97865.66;;;15.98;61.20
21300;BME280;10809;49.476;11.016;2022-09-13T07:12:18;97865.00;;;16.05;61.35
21300;BME280;10809;49.476;11.016;2022-09-13T07:14:49;97854.41;;;16.15;61.54
21300;BME280;10809;49.476;11.016;2022-09-13T07:17:19;97866.63;;;16.28;61.53
21300;BME280;10809;49.476;11.016;2022-09-13T07:19:49;97862.75;;;16.42;61.57
21300;BME280;10809;49.476;11.016;2022-09-13T07:22:20;97862.16;;;16.59;61.42
21300;BME280;10809;49.476;11.016;2022-09-13T07:24:56;97865.88;;;16.77;61.18
21300;BME280;10809;49.476;11.016;2022-09-13T07:27:26;97860.03;;;16.93;61.08
21300;BME280;10809;49.476;11.016;2022-09-13T07:29:56;97864.31;;;17.05;60.67
21300;BME280;10809;49.476;11.016;2022-09-13T07:32:27;97871.28;;;17.17;60.48
21300;BME280;10809;49.476;11.016;2022-09-13T07:34:57;97869.59;;;17.25;60.25
21300;BME280;10809;49.476;11.016;2022-09-13T07:37:27;97868.63;;;17.36;59.98
21300;BME280;10809;49.476;11.016;2022-09-13T07:39:58;97878.50;;;17.45;59.79
21300;BME280;10809;49.476;11.016;2022-09-13T07:42:28;97869.78;;;17.52;59.61
21300;BME280;10809;49.476;11.016;2022-09-13T07:44:58;97866.44;;;17.60;59.55
21300;BME280;10809;49.476;11.016;2022-09-13T07:47:31;97868.69;;;17.64;59.44
21300;BME280;10809;49.476;11.016;2022-09-13T07:50:02;97863.06;;;17.67;58.91
21300;BME280;10809;49.476;11.016;2022-09-13T07:52:33;97868.28;;;17.69;58.80
21300;BME280;10809;49.476;11.016;2022-09-13T07:55:07;97868.81;;;17.72;58.85
21300;BME280;10809;49.476;11.016;2022-09-13T07:57:37;97875.88;;;17.73;58.93
21300;BME280;10809;49.476;11.016;2022-09-13T08:00:08;97864.03;;;17.76;58.57
21300;BME280;10809;49.476;11.016;2022-09-13T08:02:42;97865.72;;;17.77;58.38
21300;BME280;10809;49.476;11.016;2022-09-13T08:05:12;97872.78;;;17.78;58.59
21300;BME280;10809;49.476;11.016;2022-09-13T08:07:43;97873.34;;;17.81;58.70
21300;BME280;10809;49.476;11.016;2022-09-13T08:10:13;97871.50;;;17.82;58.71
21300;BME280;10809;49.476;11.016;2022-09-13T08:12:44;97870.38;;;17.84;58.75
21300;BME280;10809;49.476;11.016;2022-09-13T08:15:14;97872.91;;;17.86;58.76
21300;BME280;10809;49.476;11.016;2022-09-13T08:17:44;97877.16;;;17.88;58.68
21300;BME280;10809;49.476;11.016;2022-09-13T08:20:15;97879.41;;;17.93;58.97
21300;BME280;10809;49.476;11.016;2022-09-13T08:22:45;97879.84;;;17.98;58.94
21300;BME280;10809;49.476;11.016;2022-09-13T08:25:15;97869.69;;;18.01;58.88
21300;BME280;10809;49.476;11.016;2022-09-13T08:27:46;97878.88;;;18.08;58.71
21300;BME280;10809;49.476;11.016;2022-09-13T08:30:16;97875.78;;;18.13;58.65
21300;BME280;10809;49.476;11.016;2022-09-13T08:32:49;97879.72;;;18.19;58.87
21300;BME280;10809;49.476;11.016;2022-09-13T08:35:20;97871.09;;;18.25;58.44
21300;BME280;10809;49.476;11.016;2022-09-13T08:37:51;97876.59;;;18.33;58.38
21300;BME280;10809;49.476;11.016;2022-09-13T08:40:23;97876.69;;;18.41;58.69
21300;BME280;10809;49.476;11.016;2022-09-13T08:43:11;97885.59;;;18.51;58.52
21300;BME280;10809;49.476;11.016;2022-09-13T08:45:59;97888.78;;;18.64;58.20
21300;BME280;10809;49.476;11.016;2022-09-13T08:48:38;97884.97;;;18.76;58.32
21300;BME280;10809;49.476;11.016;2022-09-13T08:51:47;97888.03;;;18.90;58.73
21300;BME280;10809;49.476;11.016;2022-09-13T08:54:19;97870.75;;;19.02;58.47
21300;BME280;10809;49.476;11.016;2022-09-13T09:05:29;97860.25;;;19.36;56.66
21300;BME280;10809;49.476;11.016;2022-09-13T09:08:10;97863.91;;;19.35;56.62
21300;BME280;10809;49.476;11.016;2022-09-13T09:10:48;97866.09;;;19.31;56.23
21300;BME280;10809;49.476;11.016;2022-09-13T09:13:32;97874.44;;;19.28;56.60
21300;BME280;10809;49.476;11.016;2022-09-13T09:19:13;97878.03;;;19.19;56.68
21300;BME280;10809;49.476;11.016;2022-09-13T09:21:48;97877.47;;;19.16;56.95
21300;BME280;10809;49.476;11.016;2022-09-13T09:24:23;97884.81;;;19.14;56.76
21300;BME280;10809;49.476;11.016;2022-09-13T09:26:56;97883.28;;;19.11;56.60
21300;BME280;10809;49.476;11.016;2022-09-13T09:29:28;97880.75;;;19.10;55.99
21300;BME280;10809;49.476;11.016;2022-09-13T09:35:51;97874.25;;;19.03;56.05
21300;BME280;10809;49.476;11.016;2022-09-13T09:38:35;97877.25;;;19.00;56.08
21300;BME280;10809;49.476;11.016;2022-09-13T09:43:49;97876.31;;;18.91;56.26
21300;BME280;10809;49.476;11.016;2022-09-13T09:46:26;97884.66;;;18.88;56.47
21300;BME280;10809;49.476;11.016;2022-09-13T09:49:16;97881.41;;;18.85;56.42
21300;BME280;10809;49.476;11.016;2022-09-13T09:52:09;97882.41;;;18.84;56.69
21300;BME280;10809;49.476;11.016;2022-09-13T09:54:40;97875.34;;;18.83;56.58
21300;BME280;10809;49.476;11.016;2022-09-13T09:57:12;97867.59;;;18.80;56.54
21300;BME280;10809;49.476;11.016;2022-09-13T09:59:42;97863.22;;;18.79;56.76
21300;BME280;10809;49.476;11.016;2022-09-13T10:02:17;97852.47;;;18.79;56.93
21300;BME280;10809;49.476;11.016;2022-09-13T10:04:54;97845.44;;;18.78;56.78
21300;BME280;10809;49.476;11.016;2022-09-13T10:07:29;97833.56;;;18.80;56.91
21300;BME280;10809;49.476;11.016;2022-09-13T10:10:07;97831.88;;;18.79;56.97
21300;BME280;10809;49.476;11.016;2022-09-13T10:12:52;97833.41;;;18.82;56.99
21300;BME280;10809;49.476;11.016;2022-09-13T10:15:28;97825.50;;;18.80;56.93
21300;BME280;10809;49.476;11.016;2022-09-13T10:18:13;97809.13;;;18.83;57.03
21300;BME280;10809;49.476;11.016;2022-09-13T10:21:01;97799.09;;;18.85;57.06
21300;BME280;10809;49.476;11.016;2022-09-13T10:23:34;97792.56;;;18.88;56.72
21300;BME280;10809;49.476;11.016;2022-09-13T10:26:08;97793.28;;;18.90;56.41
21300;BME280;10809;49.476;11.016;2022-09-13T10:31:39;97791.97;;;18.94;56.44
21300;BME280;10809;49.476;11.016;2022-09-13T10:34:19;97805.09;;;18.97;56.94
21300;BME280;10809;49.476;11.016;2022-09-13T10:36:55;97811.88;;;19.01;56.89
21300;BME280;10809;49.476;11.016;2022-09-13T10:39:29;97800.97;;;19.02;56.78
21300;BME280;10809;49.476;11.016;2022-09-13T10:42:08;97804.03;;;19.07;56.88
21300;BME280;10809;49.476;11.016;2022-09-13T10:44:45;97811.66;;;19.12;56.47
21300;BME280;10809;49.476;11.016;2022-09-13T10:47:26;97819.28;;;19.16;56.58
21300;BME280;10809;49.476;11.016;2022-09-13T10:50:11;97807.06;;;19.22;56.71
21300;BME280;10809;49.476;11.016;2022-09-13T10:52:47;97804.63;;;19.28;56.23
21300;BME280;10809;49.476;11.016;2022-09-13T10:57:53;97803.56;;;19.39;55.99
21300;BME280;10809;49.476;11.016;2022-09-13T11:06:58;97811.03;;;19.62;56.14
21300;BME280;10809;49.476;11.016;2022-09-13T11:09:36;97819.34;;;19.69;55.76
21300;BME280;10809;49.476;11.016;2022-09-13T11:18:20;97796.69;;;19.89;55.82
21300;BME280;10809;49.476;11.016;2022-09-13T11:21:12;97804.13;;;19.95;55.72
21300;BME280;10809;49.476;11.016;2022-09-13T11:24:06;97804.47;;;20.00;55.46
21300;BME280;10809;49.476;11.016;2022-09-13T11:26:59;97791.44;;;20.05;55.51
21300;BME280;10809;49.476;11.016;2022-09-13T11:46:43;97807.41;;;20.24;55.11
21300;BME280;10809;49.476;11.016;2022-09-13T11:49:23;97806.25;;;20.27;54.90
21300;BME280;10809;49.476;11.016;2022-09-13T11:57:56;97805.66;;;20.23;54.90
21300;BME280;10809;49.476;11.016;2022-09-13T12:00:36;97801.47;;;20.21;54.77
21300;BME280;10809;49.476;11.016;2022-09-13T12:05:44;97800.41;;;20.14;54.88
21300;BME280;10809;49.476;11.016;2022-09-13T12:08:21;97801.56;;;20.11;55.61
21300;BME280;10809;49.476;11.016;2022-09-13T12:10:59;97807.25;;;20.08;55.61
21300;BME280;10809;49.476;11.016;2022-09-13T12:13:40;97810.09;;;20.07;55.35
21300;BME280;10809;49.476;11.016;2022-09-13T12:16:21;97810.41;;;20.04;55.48
21300;BME280;10809;49.476;11.016;2022-09-13T12:18:55;97803.34;;;20.03;55.68
21300;BME280;10809;49.476;11.016;2022-09-13T12:21:35;97803.66;;;20.00;55.76
21300;BME280;10809;49.476;11.016;2022-09-13T12:24:12;97799.41;;;19.97;56.02
21300;BME280;10809;49.476;11.016;2022-09-13T12:26:54;97788.97;;;19.94;55.80
21300;BME280;10809;49.476;11.016;2022-09-13T12:29:49;97794.66;;;19.91;56.17
21300;BME280;10809;49.476;11.016;2022-09-13T12:32:21;97784.22;;;19.88;56.55
21300;BME280;10809;49.476;11.016;2022-09-13T12:34:57;97780.88;;;19.86;56.33
21300;BME280;10809;49.476;11.016;2022-09-13T12:44:00;97770.75;;;19.80;56.42
21300;BME280;10809;49.476;11.016;2022-09-13T12:49:24;97761.84;;;19.79;56.75
21300;BME280;10809;49.476;11.016;2022-09-13T12:55:08;97766.19;;;19.80;57.15
21300;BME280;10809;49.476;11.016;2022-09-13T12:57:54;97766.19;;;19.80;57.13
21300;BME280;10809;49.476;11.016;2022-09-13T13:00:33;97765.06;;;19.83;57.27
21300;BME280;10809;49.476;11.016;2022-09-13T13:06:05;97765.72;;;19.85;57.37
21300;BME280;10809;49.476;11.016;2022-09-13T13:08:37;97771.81;;;19.87;57.28
21300;BME280;10809;49.476;11.016;2022-09-13T13:11:11;97772.50;;;19.89;57.31
21300;BME280;10809;49.476;11.016;2022-09-13T13:13:45;97764.28;;;19.91;57.53
21300;BME280;10809;49.476;11.016;2022-09-13T13:16:29;97760.44;;;19.93;57.25
21300;BME280;10809;49.476;11.016;2022-09-13T13:19:02;97751.34;;;19.94;57.39
21300;BME280;10809;49.476;11.016;2022-09-13T13:21:38;97754.75;;;19.96;57.29
21300;BME280;10809;49.476;11.016;2022-09-13T13:26:56;97743.69;;;19.99;57.20
21300;BME280;10809;49.476;11.016;2022-09-13T13:29:32;97750.41;;;20.03;57.21
21300;BME280;10809;49.476;11.016;2022-09-13T13:32:09;97750.09;;;20.06;57.10
21300;BME280;10809;49.476;11.016;2022-09-13T13:34:48;97741.88;;;20.08;57.20
21300;BME280;10809;49.476;11.016;2022-09-13T13:40:12;97749.19;;;20.15;57.36
21300;BME280;10809;49.476;11.016;2022-09-13T13:42:49;97740.47;;;20.21;57.71
21300;BME280;10809;49.476;11.016;2022-09-13T13:45:23;97746.38;;;20.25;57.68
21300;BME280;10809;49.476;11.016;2022-09-13T13:48:12;97728.09;;;20.28;57.36
21300;BME280;10809;49.476;11.016;2022-09-13T13:53:44;97739.41;;;20.40;57.88
21300;BME280;10809;49.476;11.016;2022-09-13T13:56:31;97737.09;;;20.45;58.35
21300;BME280;10809;49.476;11.016;2022-09-13T13:59:15;97729.56;;;20.48;58.48
21300;BME280;10809;49.476;11.016;2022-09-13T14:01:51;97725.53;;;20.52;57.98
21300;BME280;10809;49.476;11.016;2022-09-13T14:04:51;97723.69;;;20.53;57.98
21300;BME280;10809;49.476;11.016;2022-09-13T14:10:27;97727.91;;;20.55;58.43
21300;BME280;10809;49.476;11.016;2022-09-13T14:15:50;97711.28;;;20.60;58.34
21300;BME280;10809;49.476;11.016;2022-09-13T14:21:29;97697.16;;;20.66;58.34
21300;BME280;10809;49.476;11.016;2022-09-13T14:24:16;97700.22;;;20.71;58.11
21300;BME280;10809;49.476;11.016;2022-09-13T14:26:56;97694.34;;;20.75;57.74
21300;BME280;10809;49.476;11.016;2022-09-13T14:29:28;97690.31;;;20.79;58.11
21300;BME280;10809;49.476;11.016;2022-09-13T14:32:05;97683.47;;;20.85;58.12
21300;BME280;10809;49.476;11.016;2022-09-13T14:34:37;97691.03;;;20.89;58.05
21300;BME280;10809;49.476;11.016;2022-09-13T14:37:16;97693.41;;;20.92;57.76
21300;BME280;10809;49.476;11.016;2022-09-13T14:40:05;97693.09;;;20.95;57.32
21300;BME280;10809;49.476;11.016;2022-09-13T14:42:44;97690.06;;;20.98;57.23
21300;BME280;10809;49.476;11.016;2022-09-13T14:45:18;97689.75;;;21.01;57.18
21300;BME280;10809;49.476;11.016;2022-09-13T14:48:05;97687.88;;;21.02;56.85
21300;BME280;10809;49.476;11.016;2022-09-13T14:50:46;97690.56;;;21.02;56.91
21300;BME280;10809;49.476;11.016;2022-09-13T14:53:21;97686.03;;;21.02;56.77
21300;BME280;10809;49.476;11.016;2022-09-13T14:56:05;97689.75;;;21.01;56.94
21300;BME280;10809;49.476;11.016;2022-09-13T14:58:44;97680.66;;;21.02;56.57
21300;BME280;10809;49.476;11.016;2022-09-13T15:01:18;97685.03;;;21.03;56.64
21300;BME280;10809;49.476;11.016;2022-09-13T15:03:50;97682.31;;;21.03;57.11
21300;BME280;10809;49.476;11.016;2022-09-13T15:06:23;97677.63;;;21.05;57.27
21300;BME280;10809;49.476;11.016;2022-09-13T15:09:26;97669.38;;;21.07;56.88
21300;BME280;10809;49.476;11.016;2022-09-13T15:11:59;97666.53;;;21.08;56.86
21300;BME280;10809;49.476;11.016;2022-09-13T15:14:34;97664.69;;;21.09;56.83
21300;BME280;10809;49.476;11.016;2022-09-13T15:17:10;97658.28;;;21.10;57.22
21300;BME280;10809;49.476;11.016;2022-09-13T15:19:48;97658.28;;;21.10;56.94
21300;BME280;10809;49.476;11.016;2022-09-13T15:24:54;97650.38;;;21.08;56.35
21300;BME280;10809;49.476;11.016;2022-09-13T15:27:29;97660.28;;;21.08;56.47
21300;BME280;10809;49.476;11.016;2022-09-13T15:30:02;97657.59;;;21.08;56.56
21300;BME280;10809;49.476;11.016;2022-09-13T15:32:41;97649.69;;;21.06;56.53
21300;BME280;10809;49.476;11.016;2022-09-13T15:35:28;97644.31;;;21.06;56.69
21300;BME280;10809;49.476;11.016;2022-09-13T15:38:06;97648.88;;;21.06;56.84
21300;BME280;10809;49.476;11.016;2022-09-13T15:40:46;97653.22;;;21.07;56.48
21300;BME280;10809;49.476;11.016;2022-09-13T15:43:27;97655.06;;;21.06;56.57
21300;BME280;10809;49.476;11.016;2022-09-13T15:45:58;97654.25;;;21.06;56.95